sensor_id;sensor_type;location;lat;lon;timestamp;P1;durP1;ratioP1;P2;durP2;ratioP2
13083;SDS011;6608;48.790;9.198;2023-04-01T00:00:48;130.03;;;56.03;;
13083;SDS011;6608;48.790;9.198;2023-04-01T00:03:15;131.90;;;56.73;;
13083;SDS011;6608;48.790;9.198;2023-04-01T00:05:41;132.40;;;57.20;;
13083;SDS011;6608;48.790;9.198;2023-04-01T00:08:08;131.77;;;56.63;;
13083;SDS011;6608;48.790;9.198;2023-04-01T00:10:34;132.27;;;56.97;;
13083;SDS011;6608;48.790;9.198;2023-04-01T00:13:01;131.60;;;56.60;;
13083;SDS011;6608;48.790;9.198;2023-04-01T00:15:27;134.07;;;57.80;;
13083;SDS011;6608;48.790;9.198;2023-04-01T00:17:55;133.47;;;57.10;;
13083;SDS011;6608;48.790;9.198;2023-04-01T00:20:21;130.43;;;56.57;;
13083;SDS011;6608;48.790;9.198;2023-04-01T00:22:48;133.13;;;57.10;;
13083;SDS011;6608;48.790;9.198;2023-04-01T00:25:14;131.90;;;56.90;;
13083;SDS011;6608;48.790;9.198;2023-04-01T00:27:41;132.73;;;56.47;;
13083;SDS011;6608;48.790;9.198;2023-04-01T00:30:08;132.40;;;57.00;;
13083;SDS011;6608;48.790;9.198;2023-04-01T00:32:34;133.33;;;57.43;;
13083;SDS011;6608;48.790;9.198;2023-04-01T00:35:02;134.70;;;57.43;;
13083;SDS011;6608;48.790;9.198;2023-04-01T00:37:29;131.90;;;56.87;;
13083;SDS011;6608;48.790;9.198;2023-04-01T00:39:55;129.80;;;55.37;;
13083;SDS011;6608;48.790;9.198;2023-04-01T00:42:22;131.13;;;55.03;;
13083;SDS011;6608;48.790;9.198;2023-04-01T00:44:50;129.57;;;54.40;;
13083;SDS011;6608;48.790;9.198;2023-04-01T00:47:16;129.10;;;55.03;;
13083;SDS011;6608;48.790;9.198;2023-04-01T00:49:44;130.43;;;54.63;;
13083;SDS011;6608;48.790;9.198;2023-04-01T00:52:14;129.67;;;54.53;;
13083;SDS011;6608;48.790;9.198;2023-04-01T00:54:42;133.57;;;56.77;;
13083;SDS011;6608;48.790;9.198;2023-04-01T00:57:12;134.07;;;57.13;;
13083;SDS011;6608;48.790;9.198;2023-04-01T00:59:40;133.87;;;57.47;;
13083;SDS011;6608;48.790;9.198;2023-04-01T01:02:08;133.80;;;57.10;;
13083;SDS011;6608;48.790;9.198;2023-04-01T01:04:36;134.10;;;57.60;;
13083;SDS011;6608;48.790;9.198;2023-04-01T01:07:05;138.47;;;57.17;;
13083;SDS011;6608;48.790;9.198;2023-04-01T01:09:38;130.80;;;56.70;;
13083;SDS011;6608;48.790;9.198;2023-04-01T01:12:10;135.13;;;56.67;;
13083;SDS011;6608;48.790;9.198;2023-04-01T01:14:41;133.80;;;58.47;;
13083;SDS011;6608;48.790;9.198;2023-04-01T01:17:12;134.33;;;57.60;;
13083;SDS011;6608;48.790;9.198;2023-04-01T01:19:50;135.93;;;57.33;;
13083;SDS011;6608;48.790;9.198;2023-04-01T01:22:22;132.97;;;57.23;;
13083;SDS011;6608;48.790;9.198;2023-04-01T01:24:57;132.50;;;57.50;;
13083;SDS011;6608;48.790;9.198;2023-04-01T01:27:28;133.97;;;56.97;;
13083;SDS011;6608;48.790;9.198;2023-04-01T01:32:55;133.50;;;57.63;;
13083;SDS011;6608;48.790;9.198;2023-04-01T01:35:24;135.50;;;56.83;;
13083;SDS011;6608;48.790;9.198;2023-04-01T01:37:53;131.47;;;55.50;;
13083;SDS011;6608;48.790;9.198;2023-04-01T01:40:20;134.77;;;57.93;;
13083;SDS011;6608;48.790;9.198;2023-04-01T01:42:48;132.47;;;56.73;;
13083;SDS011;6608;48.790;9.198;2023-04-01T01:45:16;132.57;;;56.87;;
13083;SDS011;6608;48.790;9.198;2023-04-01T01:47:44;131.87;;;56.30;;
13083;SDS011;6608;48.790;9.198;2023-04-01T01:50:11;134.63;;;56.67;;
13083;SDS011;6608;48.790;9.198;2023-04-01T01:52:39;131.63;;;56.23;;
13083;SDS011;6608;48.790;9.198;2023-04-01T01:57:47;130.43;;;56.03;;
13083;SDS011;6608;48.790;9.198;2023-04-01T02:00:14;132.90;;;56.50;;
13083;SDS011;6608;48.790;9.198;2023-04-01T02:02:40;131.27;;;56.60;;
13083;SDS011;6608;48.790;9.198;2023-04-01T02:05:08;131.00;;;56.73;;
13083;SDS011;6608;48.790;9.198;2023-04-01T02:07:35;130.00;;;56.10;;
13083;SDS011;6608;48.790;9.198;2023-04-01T02:10:05;131.27;;;56.70;;
13083;SDS011;6608;48.790;9.198;2023-04-01T02:12:32;132.80;;;57.87;;
13083;SDS011;6608;48.790;9.198;2023-04-01T02:15:01;131.20;;;56.23;;
13083;SDS011;6608;48.790;9.198;2023-04-01T02:17:30;131.60;;;56.40;;
13083;SDS011;6608;48.790;9.198;2023-04-01T02:19:57;131.10;;;56.23;;
13083;SDS011;6608;48.790;9.198;2023-04-01T02:22:26;130.17;;;56.17;;
13083;SDS011;6608;48.790;9.198;2023-04-01T02:24:54;130.93;;;56.13;;
13083;SDS011;6608;48.790;9.198;2023-04-01T02:27:24;130.97;;;56.60;;
13083;SDS011;6608;48.790;9.198;2023-04-01T02:29:51;132.07;;;57.03;;
13083;SDS011;6608;48.790;9.198;2023-04-01T02:32:18;131.77;;;56.80;;
13083;SDS011;6608;48.790;9.198;2023-04-01T02:34:45;132.97;;;56.87;;
13083;SDS011;6608;48.790;9.198;2023-04-01T02:37:12;133.60;;;56.90;;
13083;SDS011;6608;48.790;9.198;2023-04-01T02:39:39;130.37;;;56.57;;
13083;SDS011;6608;48.790;9.198;2023-04-01T02:42:05;130.23;;;56.33;;
13083;SDS011;6608;48.790;9.198;2023-04-01T02:44:33;132.53;;;56.40;;
13083;SDS011;6608;48.790;9.198;2023-04-01T02:47:00;129.30;;;55.43;;
13083;SDS011;6608;48.790;9.198;2023-04-01T02:49:26;131.47;;;56.83;;
13083;SDS011;6608;48.790;9.198;2023-04-01T02:51:53;129.60;;;55.43;;
13083;SDS011;6608;48.790;9.198;2023-04-01T02:54:20;130.60;;;56.83;;
13083;SDS011;6608;48.790;9.198;2023-04-01T02:56:46;129.53;;;56.00;;
13083;SDS011;6608;48.790;9.198;2023-04-01T02:59:13;129.80;;;56.27;;
13083;SDS011;6608;48.790;9.198;2023-04-01T03:01:40;129.10;;;55.80;;
13083;SDS011;6608;48.790;9.198;2023-04-01T03:04:07;127.53;;;55.23;;
13083;SDS011;6608;48.790;9.198;2023-04-01T03:06:33;128.80;;;55.60;;
13083;SDS011;6608;48.790;9.198;2023-04-01T03:09:00;129.07;;;56.23;;
13083;SDS011;6608;48.790;9.198;2023-04-01T03:11:27;130.07;;;56.60;;
13083;SDS011;6608;48.790;9.198;2023-04-01T03:13:53;129.67;;;55.97;;
13083;SDS011;6608;48.790;9.198;2023-04-01T03:16:20;131.10;;;56.33;;
13083;SDS011;6608;48.790;9.198;2023-04-01T03:18:48;128.87;;;55.90;;
13083;SDS011;6608;48.790;9.198;2023-04-01T03:21:18;129.40;;;56.47;;
13083;SDS011;6608;48.790;9.198;2023-04-01T03:23:44;129.80;;;56.17;;
13083;SDS011;6608;48.790;9.198;2023-04-01T03:26:11;130.27;;;56.10;;
13083;SDS011;6608;48.790;9.198;2023-04-01T03:28:38;129.47;;;56.27;;
13083;SDS011;6608;48.790;9.198;2023-04-01T03:31:04;128.03;;;55.67;;
13083;SDS011;6608;48.790;9.198;2023-04-01T03:33:31;131.50;;;56.73;;
13083;SDS011;6608;48.790;9.198;2023-04-01T03:35:59;128.30;;;55.93;;
13083;SDS011;6608;48.790;9.198;2023-04-01T03:38:25;128.27;;;55.67;;
13083;SDS011;6608;48.790;9.198;2023-04-01T03:40:52;128.07;;;55.97;;
13083;SDS011;6608;48.790;9.198;2023-04-01T03:43:18;128.73;;;56.13;;
13083;SDS011;6608;48.790;9.198;2023-04-01T03:45:45;128.40;;;55.67;;
13083;SDS011;6608;48.790;9.198;2023-04-01T03:48:12;130.17;;;56.27;;
13083;SDS011;6608;48.790;9.198;2023-04-01T03:50:38;129.50;;;56.13;;
13083;SDS011;6608;48.790;9.198;2023-04-01T03:53:06;129.30;;;56.53;;
13083;SDS011;6608;48.790;9.198;2023-04-01T03:55:33;128.53;;;55.80;;
13083;SDS011;6608;48.790;9.198;2023-04-01T03:57:59;129.07;;;56.20;;
13083;SDS011;6608;48.790;9.198;2023-04-01T04:00:27;128.67;;;56.07;;
13083;SDS011;6608;48.790;9.198;2023-04-01T04:02:53;129.40;;;56.60;;
13083;SDS011;6608;48.790;9.198;2023-04-01T04:05:20;129.70;;;55.97;;
13083;SDS011;6608;48.790;9.198;2023-04-01T04:07:47;129.23;;;55.80;;
13083;SDS011;6608;48.790;9.198;2023-04-01T04:10:14;128.07;;;55.83;;
13083;SDS011;6608;48.790;9.198;2023-04-01T04:12:41;130.07;;;56.20;;
13083;SDS011;6608;48.790;9.198;2023-04-01T04:15:07;129.43;;;56.30;;
13083;SDS011;6608;48.790;9.198;2023-04-01T04:17:34;129.03;;;56.63;;
13083;SDS011;6608;48.790;9.198;2023-04-01T04:20:00;128.33;;;56.07;;
13083;SDS011;6608;48.790;9.198;2023-04-01T04:22:27;129.97;;;56.00;;
13083;SDS011;6608;48.790;9.198;2023-04-01T04:24:53;128.87;;;56.57;;
13083;SDS011;6608;48.790;9.198;2023-04-01T04:27:21;127.97;;;56.03;;
13083;SDS011;6608;48.790;9.198;2023-04-01T04:29:47;128.93;;;56.10;;
13083;SDS011;6608;48.790;9.198;2023-04-01T04:32:14;127.13;;;55.60;;
13083;SDS011;6608;48.790;9.198;2023-04-01T04:34:40;126.83;;;55.43;;
13083;SDS011;6608;48.790;9.198;2023-04-01T04:37:06;128.27;;;56.20;;
13083;SDS011;6608;48.790;9.198;2023-04-01T04:39:33;128.37;;;55.23;;
13083;SDS011;6608;48.790;9.198;2023-04-01T04:41:59;127.80;;;55.90;;
13083;SDS011;6608;48.790;9.198;2023-04-01T04:44:27;127.67;;;55.57;;
13083;SDS011;6608;48.790;9.198;2023-04-01T04:46:53;130.00;;;56.17;;
13083;SDS011;6608;48.790;9.198;2023-04-01T04:49:20;130.60;;;55.80;;
13083;SDS011;6608;48.790;9.198;2023-04-01T04:51:46;128.47;;;56.13;;
13083;SDS011;6608;48.790;9.198;2023-04-01T04:54:13;126.97;;;55.37;;
13083;SDS011;6608;48.790;9.198;2023-04-01T04:56:39;126.90;;;55.17;;
13083;SDS011;6608;48.790;9.198;2023-04-01T04:59:05;128.00;;;55.47;;
13083;SDS011;6608;48.790;9.198;2023-04-01T05:01:33;130.93;;;56.10;;
13083;SDS011;6608;48.790;9.198;2023-04-01T05:04:00;127.80;;;55.87;;
13083;SDS011;6608;48.790;9.198;2023-04-01T05:06:26;128.87;;;55.63;;
13083;SDS011;6608;48.790;9.198;2023-04-01T05:08:54;128.47;;;55.87;;
13083;SDS011;6608;48.790;9.198;2023-04-01T05:11:21;129.70;;;56.37;;
13083;SDS011;6608;48.790;9.198;2023-04-01T05:13:48;129.37;;;55.57;;
13083;SDS011;6608;48.790;9.198;2023-04-01T05:16:16;128.37;;;55.63;;
13083;SDS011;6608;48.790;9.198;2023-04-01T05:18:44;128.73;;;56.17;;
13083;SDS011;6608;48.790;9.198;2023-04-01T05:21:11;128.43;;;55.33;;
13083;SDS011;6608;48.790;9.198;2023-04-01T05:23:38;127.07;;;55.27;;
13083;SDS011;6608;48.790;9.198;2023-04-01T05:26:04;128.83;;;55.70;;
13083;SDS011;6608;48.790;9.198;2023-04-01T05:28:31;128.60;;;55.27;;
13083;SDS011;6608;48.790;9.198;2023-04-01T05:30:58;128.93;;;55.90;;
13083;SDS011;6608;48.790;9.198;2023-04-01T05:33:24;128.37;;;55.70;;
13083;SDS011;6608;48.790;9.198;2023-04-01T05:35:52;129.20;;;55.00;;
13083;SDS011;6608;48.790;9.198;2023-04-01T05:38:19;129.83;;;55.77;;
13083;SDS011;6608;48.790;9.198;2023-04-01T05:40:45;130.87;;;56.10;;
13083;SDS011;6608;48.790;9.198;2023-04-01T05:43:11;129.00;;;55.93;;
13083;SDS011;6608;48.790;9.198;2023-04-01T05:45:38;129.50;;;56.20;;
13083;SDS011;6608;48.790;9.198;2023-04-01T05:48:04;133.07;;;56.53;;
13083;SDS011;6608;48.790;9.198;2023-04-01T05:50:30;129.63;;;56.53;;
13083;SDS011;6608;48.790;9.198;2023-04-01T05:52:58;128.00;;;55.63;;
13083;SDS011;6608;48.790;9.198;2023-04-01T05:55:25;130.27;;;56.70;;
13083;SDS011;6608;48.790;9.198;2023-04-01T05:57:51;131.63;;;57.03;;
13083;SDS011;6608;48.790;9.198;2023-04-01T06:00:18;129.27;;;56.03;;
13083;SDS011;6608;48.790;9.198;2023-04-01T06:02:44;130.50;;;56.43;;
13083;SDS011;6608;48.790;9.198;2023-04-01T06:05:18;129.07;;;55.90;;
13083;SDS011;6608;48.790;9.198;2023-04-01T06:07:44;135.30;;;57.07;;
13083;SDS011;6608;48.790;9.198;2023-04-01T06:10:14;129.87;;;56.17;;
13083;SDS011;6608;48.790;9.198;2023-04-01T06:12:45;132.07;;;56.53;;
13083;SDS011;6608;48.790;9.198;2023-04-01T06:15:17;135.53;;;57.17;;
13083;SDS011;6608;48.790;9.198;2023-04-01T06:17:52;131.50;;;56.63;;
13083;SDS011;6608;48.790;9.198;2023-04-01T06:20:23;131.67;;;56.83;;
13083;SDS011;6608;48.790;9.198;2023-04-01T06:22:56;131.63;;;56.50;;
13083;SDS011;6608;48.790;9.198;2023-04-01T06:25:39;134.43;;;57.37;;
13083;SDS011;6608;48.790;9.198;2023-04-01T06:31:04;133.07;;;57.37;;
13083;SDS011;6608;48.790;9.198;2023-04-01T06:33:45;135.67;;;58.97;;
13083;SDS011;6608;48.790;9.198;2023-04-01T06:36:18;136.97;;;57.57;;
13083;SDS011;6608;48.790;9.198;2023-04-01T06:38:51;134.57;;;57.73;;
13083;SDS011;6608;48.790;9.198;2023-04-01T06:41:34;131.27;;;55.17;;
13083;SDS011;6608;48.790;9.198;2023-04-01T06:44:06;134.10;;;57.50;;
13083;SDS011;6608;48.790;9.198;2023-04-01T06:46:37;132.50;;;56.47;;
13083;SDS011;6608;48.790;9.198;2023-04-01T06:49:15;134.07;;;57.43;;
13083;SDS011;6608;48.790;9.198;2023-04-01T06:51:45;133.63;;;57.60;;
13083;SDS011;6608;48.790;9.198;2023-04-01T06:54:14;132.47;;;56.67;;
13083;SDS011;6608;48.790;9.198;2023-04-01T06:56:45;130.70;;;55.90;;
13083;SDS011;6608;48.790;9.198;2023-04-01T06:59:13;134.70;;;57.50;;
13083;SDS011;6608;48.790;9.198;2023-04-01T07:01:41;135.90;;;57.63;;
13083;SDS011;6608;48.790;9.198;2023-04-01T07:04:09;134.17;;;57.30;;
13083;SDS011;6608;48.790;9.198;2023-04-01T07:06:37;134.27;;;56.80;;
13083;SDS011;6608;48.790;9.198;2023-04-01T07:09:06;133.20;;;57.33;;
13083;SDS011;6608;48.790;9.198;2023-04-01T07:11:35;132.60;;;57.13;;
13083;SDS011;6608;48.790;9.198;2023-04-01T07:14:06;134.87;;;56.87;;
13083;SDS011;6608;48.790;9.198;2023-04-01T07:16:37;133.43;;;57.17;;
13083;SDS011;6608;48.790;9.198;2023-04-01T07:19:06;135.07;;;57.07;;
13083;SDS011;6608;48.790;9.198;2023-04-01T07:21:35;133.80;;;57.27;;
13083;SDS011;6608;48.790;9.198;2023-04-01T07:24:04;134.90;;;58.20;;
13083;SDS011;6608;48.790;9.198;2023-04-01T07:26:31;132.07;;;56.87;;
13083;SDS011;6608;48.790;9.198;2023-04-01T07:28:58;134.07;;;57.20;;
13083;SDS011;6608;48.790;9.198;2023-04-01T07:31:29;133.13;;;57.00;;
13083;SDS011;6608;48.790;9.198;2023-04-01T07:33:58;135.03;;;58.13;;
13083;SDS011;6608;48.790;9.198;2023-04-01T07:36:31;129.63;;;54.77;;
13083;SDS011;6608;48.790;9.198;2023-04-01T07:39:00;134.17;;;57.93;;
13083;SDS011;6608;48.790;9.198;2023-04-01T07:41:29;133.53;;;57.47;;
13083;SDS011;6608;48.790;9.198;2023-04-01T07:44:01;133.03;;;57.27;;
13083;SDS011;6608;48.790;9.198;2023-04-01T07:46:55;134.07;;;58.17;;
13083;SDS011;6608;48.790;9.198;2023-04-01T07:49:25;135.70;;;57.60;;
13083;SDS011;6608;48.790;9.198;2023-04-01T07:51:56;133.00;;;56.53;;
13083;SDS011;6608;48.790;9.198;2023-04-01T07:54:26;134.23;;;57.53;;
13083;SDS011;6608;48.790;9.198;2023-04-01T07:56:56;133.20;;;56.83;;
13083;SDS011;6608;48.790;9.198;2023-04-01T07:59:27;137.13;;;58.37;;
13083;SDS011;6608;48.790;9.198;2023-04-01T08:01:57;130.77;;;56.00;;
13083;SDS011;6608;48.790;9.198;2023-04-01T08:04:29;131.83;;;56.93;;
13083;SDS011;6608;48.790;9.198;2023-04-01T08:06:58;132.53;;;56.57;;
13083;SDS011;6608;48.790;9.198;2023-04-01T08:09:31;133.63;;;57.07;;
13083;SDS011;6608;48.790;9.198;2023-04-01T08:12:02;136.97;;;57.07;;
13083;SDS011;6608;48.790;9.198;2023-04-01T08:14:31;136.00;;;57.53;;
13083;SDS011;6608;48.790;9.198;2023-04-01T08:17:01;135.63;;;58.50;;
13083;SDS011;6608;48.790;9.198;2023-04-01T08:19:30;136.20;;;57.60;;
13083;SDS011;6608;48.790;9.198;2023-04-01T08:21:58;134.47;;;57.30;;
13083;SDS011;6608;48.790;9.198;2023-04-01T08:24:32;135.13;;;57.67;;
13083;SDS011;6608;48.790;9.198;2023-04-01T08:27:01;136.50;;;57.17;;
13083;SDS011;6608;48.790;9.198;2023-04-01T08:29:31;140.87;;;59.73;;
13083;SDS011;6608;48.790;9.198;2023-04-01T08:32:03;137.13;;;57.53;;
13083;SDS011;6608;48.790;9.198;2023-04-01T08:34:33;136.30;;;57.97;;
13083;SDS011;6608;48.790;9.198;2023-04-01T08:37:02;135.47;;;57.27;;
13083;SDS011;6608;48.790;9.198;2023-04-01T08:39:31;135.63;;;56.53;;
13083;SDS011;6608;48.790;9.198;2023-04-01T08:42:10;137.27;;;57.87;;
13083;SDS011;6608;48.790;9.198;2023-04-01T08:47:39;136.40;;;57.77;;
13083;SDS011;6608;48.790;9.198;2023-04-01T08:50:12;137.17;;;58.43;;
13083;SDS011;6608;48.790;9.198;2023-04-01T08:52:47;135.97;;;58.13;;
13083;SDS011;6608;48.790;9.198;2023-04-01T08:55:25;137.27;;;58.83;;
13083;SDS011;6608;48.790;9.198;2023-04-01T08:58:00;134.83;;;57.13;;
13083;SDS011;6608;48.790;9.198;2023-04-01T09:00:30;132.40;;;56.83;;
13083;SDS011;6608;48.790;9.198;2023-04-01T09:03:02;133.77;;;57.10;;
13083;SDS011;6608;48.790;9.198;2023-04-01T09:05:37;136.03;;;57.47;;
13083;SDS011;6608;48.790;9.198;2023-04-01T09:08:10;132.60;;;56.97;;
13083;SDS011;6608;48.790;9.198;2023-04-01T09:13:36;132.07;;;56.70;;
13083;SDS011;6608;48.790;9.198;2023-04-01T09:21:34;132.03;;;57.33;;
13083;SDS011;6608;48.790;9.198;2023-04-01T09:24:09;133.27;;;57.13;;
13083;SDS011;6608;48.790;9.198;2023-04-01T09:26:44;133.57;;;57.67;;
13083;SDS011;6608;48.790;9.198;2023-04-01T09:29:20;135.57;;;58.20;;
13083;SDS011;6608;48.790;9.198;2023-04-01T09:32:00;135.23;;;58.43;;
13083;SDS011;6608;48.790;9.198;2023-04-01T09:34:45;135.67;;;58.73;;
13083;SDS011;6608;48.790;9.198;2023-04-01T09:37:20;135.33;;;58.03;;
13083;SDS011;6608;48.790;9.198;2023-04-01T09:45:23;136.83;;;57.43;;
13083;SDS011;6608;48.790;9.198;2023-04-01T09:47:57;136.63;;;58.07;;
13083;SDS011;6608;48.790;9.198;2023-04-01T09:50:34;137.47;;;58.77;;
13083;SDS011;6608;48.790;9.198;2023-04-01T09:53:07;136.03;;;57.77;;
13083;SDS011;6608;48.790;9.198;2023-04-01T09:58:35;133.60;;;57.03;;
13083;SDS011;6608;48.790;9.198;2023-04-01T10:01:12;136.23;;;57.80;;
13083;SDS011;6608;48.790;9.198;2023-04-01T10:06:42;135.37;;;57.57;;
13083;SDS011;6608;48.790;9.198;2023-04-01T10:15:09;135.40;;;58.40;;
13083;SDS011;6608;48.790;9.198;2023-04-01T10:17:51;134.03;;;57.43;;
13083;SDS011;6608;48.790;9.198;2023-04-01T10:23:08;134.83;;;57.43;;
13083;SDS011;6608;48.790;9.198;2023-04-01T10:28:27;137.17;;;58.67;;
13083;SDS011;6608;48.790;9.198;2023-04-01T10:31:13;136.60;;;58.00;;
13083;SDS011;6608;48.790;9.198;2023-04-01T10:33:59;137.70;;;58.40;;
13083;SDS011;6608;48.790;9.198;2023-04-01T10:39:19;139.47;;;58.93;;
13083;SDS011;6608;48.790;9.198;2023-04-01T10:42:11;139.47;;;59.00;;
13083;SDS011;6608;48.790;9.198;2023-04-01T10:47:43;138.80;;;58.83;;
13083;SDS011;6608;48.790;9.198;2023-04-01T10:50:20;143.27;;;58.70;;
13083;SDS011;6608;48.790;9.198;2023-04-01T10:55:44;139.00;;;57.70;;
13083;SDS011;6608;48.790;9.198;2023-04-01T10:58:23;136.47;;;57.53;;
13083;SDS011;6608;48.790;9.198;2023-04-01T11:00:57;137.27;;;58.50;;
13083;SDS011;6608;48.790;9.198;2023-04-01T11:09:13;135.90;;;57.43;;
13083;SDS011;6608;48.790;9.198;2023-04-01T11:14:55;137.90;;;59.03;;
13083;SDS011;6608;48.790;9.198;2023-04-01T11:22:55;138.47;;;58.17;;
13083;SDS011;6608;48.790;9.198;2023-04-01T11:25:38;141.37;;;59.17;;
13083;SDS011;6608;48.790;9.198;2023-04-01T11:28:14;141.57;;;58.97;;
13083;SDS011;6608;48.790;9.198;2023-04-01T11:30:53;140.33;;;58.23;;
13083;SDS011;6608;48.790;9.198;2023-04-01T11:33:25;141.80;;;58.97;;
13083;SDS011;6608;48.790;9.198;2023-04-01T11:38:42;144.67;;;59.90;;
13083;SDS011;6608;48.790;9.198;2023-04-01T11:41:15;144.70;;;59.13;;
13083;SDS011;6608;48.790;9.198;2023-04-01T11:43:48;145.43;;;59.57;;
13083;SDS011;6608;48.790;9.198;2023-04-01T11:46:16;142.93;;;57.73;;
13083;SDS011;6608;48.790;9.198;2023-04-01T11:48:53;147.97;;;60.63;;
13083;SDS011;6608;48.790;9.198;2023-04-01T11:51:34;145.63;;;58.93;;
13083;SDS011;6608;48.790;9.198;2023-04-01T11:54:06;146.17;;;59.50;;
13083;SDS011;6608;48.790;9.198;2023-04-01T11:56:42;146.57;;;60.23;;
13083;SDS011;6608;48.790;9.198;2023-04-01T12:02:03;145.30;;;59.43;;
13083;SDS011;6608;48.790;9.198;2023-04-01T12:04:36;144.03;;;59.33;;
13083;SDS011;6608;48.790;9.198;2023-04-01T12:07:09;144.13;;;60.07;;
13083;SDS011;6608;48.790;9.198;2023-04-01T12:09:41;142.97;;;59.33;;
13083;SDS011;6608;48.790;9.198;2023-04-01T12:12:17;142.73;;;59.47;;
13083;SDS011;6608;48.790;9.198;2023-04-01T12:14:47;141.10;;;58.13;;
13083;SDS011;6608;48.790;9.198;2023-04-01T12:17:25;141.27;;;59.20;;
13083;SDS011;6608;48.790;9.198;2023-04-01T12:19:54;142.57;;;59.57;;
13083;SDS011;6608;48.790;9.198;2023-04-01T12:22:24;142.43;;;59.70;;
13083;SDS011;6608;48.790;9.198;2023-04-01T12:24:56;139.07;;;57.80;;
13083;SDS011;6608;48.790;9.198;2023-04-01T12:27:31;141.20;;;59.17;;
13083;SDS011;6608;48.790;9.198;2023-04-01T12:30:02;141.70;;;59.97;;
13083;SDS011;6608;48.790;9.198;2023-04-01T12:32:34;140.67;;;59.03;;
13083;SDS011;6608;48.790;9.198;2023-04-01T12:35:10;140.17;;;59.03;;
13083;SDS011;6608;48.790;9.198;2023-04-01T12:37:41;139.00;;;58.17;;
13083;SDS011;6608;48.790;9.198;2023-04-01T12:40:20;139.63;;;58.23;;
13083;SDS011;6608;48.790;9.198;2023-04-01T12:42:59;138.90;;;56.87;;
13083;SDS011;6608;48.790;9.198;2023-04-01T12:45:30;140.07;;;57.07;;
13083;SDS011;6608;48.790;9.198;2023-04-01T12:48:03;140.07;;;57.13;;
13083;SDS011;6608;48.790;9.198;2023-04-01T12:50:34;142.53;;;58.33;;
13083;SDS011;6608;48.790;9.198;2023-04-01T12:53:12;142.80;;;57.40;;
13083;SDS011;6608;48.790;9.198;2023-04-01T12:55:44;146.20;;;60.30;;
13083;SDS011;6608;48.790;9.198;2023-04-01T13:01:07;144.93;;;59.97;;
13083;SDS011;6608;48.790;9.198;2023-04-01T13:03:43;143.03;;;59.07;;
13083;SDS011;6608;48.790;9.198;2023-04-01T13:06:25;144.23;;;59.47;;
13083;SDS011;6608;48.790;9.198;2023-04-01T13:08:55;144.97;;;60.63;;
13083;SDS011;6608;48.790;9.198;2023-04-01T13:11:26;143.77;;;59.37;;
13083;SDS011;6608;48.790;9.198;2023-04-01T13:16:42;142.43;;;59.00;;
13083;SDS011;6608;48.790;9.198;2023-04-01T13:19:13;141.90;;;59.00;;
13083;SDS011;6608;48.790;9.198;2023-04-01T13:21:44;140.90;;;58.07;;
13083;SDS011;6608;48.790;9.198;2023-04-01T13:24:18;141.80;;;59.13;;
13083;SDS011;6608;48.790;9.198;2023-04-01T13:26:48;141.13;;;59.00;;
13083;SDS011;6608;48.790;9.198;2023-04-01T13:29:20;141.03;;;59.00;;
13083;SDS011;6608;48.790;9.198;2023-04-01T13:31:53;142.97;;;59.23;;
13083;SDS011;6608;48.790;9.198;2023-04-01T13:34:28;139.60;;;58.60;;
13083;SDS011;6608;48.790;9.198;2023-04-01T13:36:59;139.13;;;58.17;;
13083;SDS011;6608;48.790;9.198;2023-04-01T13:42:17;140.80;;;58.77;;
13083;SDS011;6608;48.790;9.198;2023-04-01T13:44:45;142.27;;;60.23;;
13083;SDS011;6608;48.790;9.198;2023-04-01T13:47:26;142.70;;;58.77;;
13083;SDS011;6608;48.790;9.198;2023-04-01T13:52:54;142.23;;;59.13;;
13083;SDS011;6608;48.790;9.198;2023-04-01T13:55:30;142.30;;;59.47;;
13083;SDS011;6608;48.790;9.198;2023-04-01T13:58:04;142.37;;;59.90;;
13083;SDS011;6608;48.790;9.198;2023-04-01T14:00:35;143.50;;;60.50;;
13083;SDS011;6608;48.790;9.198;2023-04-01T14:03:28;142.07;;;59.00;;
13083;SDS011;6608;48.790;9.198;2023-04-01T14:05:59;142.17;;;59.33;;
13083;SDS011;6608;48.790;9.198;2023-04-01T14:08:31;142.03;;;59.23;;
13083;SDS011;6608;48.790;9.198;2023-04-01T14:11:03;140.80;;;59.00;;
13083;SDS011;6608;48.790;9.198;2023-04-01T14:13:34;140.70;;;58.60;;
13083;SDS011;6608;48.790;9.198;2023-04-01T14:16:12;140.60;;;58.30;;
13083;SDS011;6608;48.790;9.198;2023-04-01T14:18:45;144.43;;;59.50;;
13083;SDS011;6608;48.790;9.198;2023-04-01T14:21:27;143.13;;;59.57;;
13083;SDS011;6608;48.790;9.198;2023-04-01T14:23:58;142.03;;;59.43;;
13083;SDS011;6608;48.790;9.198;2023-04-01T14:29:16;140.57;;;58.47;;
13083;SDS011;6608;48.790;9.198;2023-04-01T14:31:49;139.67;;;58.07;;
13083;SDS011;6608;48.790;9.198;2023-04-01T14:34:23;139.23;;;58.27;;
13083;SDS011;6608;48.790;9.198;2023-04-01T14:39:38;139.23;;;58.20;;
13083;SDS011;6608;48.790;9.198;2023-04-01T14:42:17;139.63;;;58.60;;
13083;SDS011;6608;48.790;9.198;2023-04-01T14:45:02;139.57;;;59.10;;
13083;SDS011;6608;48.790;9.198;2023-04-01T14:47:43;137.27;;;57.93;;
13083;SDS011;6608;48.790;9.198;2023-04-01T14:50:13;138.13;;;58.13;;
13083;SDS011;6608;48.790;9.198;2023-04-01T14:52:41;137.77;;;58.17;;
13083;SDS011;6608;48.790;9.198;2023-04-01T14:55:20;138.63;;;58.37;;
13083;SDS011;6608;48.790;9.198;2023-04-01T14:57:57;138.33;;;58.33;;
13083;SDS011;6608;48.790;9.198;2023-04-01T15:00:24;136.87;;;57.60;;
13083;SDS011;6608;48.790;9.198;2023-04-01T15:02:51;140.77;;;58.77;;
13083;SDS011;6608;48.790;9.198;2023-04-01T15:05:30;139.67;;;58.00;;
13083;SDS011;6608;48.790;9.198;2023-04-01T15:08:03;138.77;;;58.03;;
13083;SDS011;6608;48.790;9.198;2023-04-01T15:13:13;139.90;;;58.30;;
13083;SDS011;6608;48.790;9.198;2023-04-01T15:15:46;138.30;;;58.20;;
13083;SDS011;6608;48.790;9.198;2023-04-01T15:18:16;139.50;;;59.03;;
13083;SDS011;6608;48.790;9.198;2023-04-01T15:21:00;139.13;;;59.20;;
13083;SDS011;6608;48.790;9.198;2023-04-01T15:23:32;137.00;;;57.80;;
13083;SDS011;6608;48.790;9.198;2023-04-01T15:26:08;138.23;;;58.53;;
13083;SDS011;6608;48.790;9.198;2023-04-01T15:28:38;139.37;;;59.43;;
13083;SDS011;6608;48.790;9.198;2023-04-01T15:31:09;137.37;;;57.67;;
13083;SDS011;6608;48.790;9.198;2023-04-01T15:33:46;137.77;;;58.23;;
13083;SDS011;6608;48.790;9.198;2023-04-01T15:36:19;135.47;;;56.37;;
13083;SDS011;6608;48.790;9.198;2023-04-01T15:38:49;138.83;;;58.67;;
13083;SDS011;6608;48.790;9.198;2023-04-01T15:41:19;138.43;;;58.63;;
13083;SDS011;6608;48.790;9.198;2023-04-01T15:43:49;137.87;;;58.40;;
13083;SDS011;6608;48.790;9.198;2023-04-01T15:46:29;139.20;;;58.30;;
13083;SDS011;6608;48.790;9.198;2023-04-01T15:49:02;137.50;;;57.67;;
13083;SDS011;6608;48.790;9.198;2023-04-01T15:57:05;138.07;;;58.67;;
13083;SDS011;6608;48.790;9.198;2023-04-01T15:59:47;136.77;;;57.40;;
13083;SDS011;6608;48.790;9.198;2023-04-01T16:02:21;137.67;;;58.43;;
13083;SDS011;6608;48.790;9.198;2023-04-01T16:04:51;136.90;;;58.03;;
13083;SDS011;6608;48.790;9.198;2023-04-01T16:10:17;138.20;;;58.83;;
13083;SDS011;6608;48.790;9.198;2023-04-01T16:12:52;137.80;;;59.03;;
13083;SDS011;6608;48.790;9.198;2023-04-01T16:15:21;139.37;;;59.00;;
13083;SDS011;6608;48.790;9.198;2023-04-01T16:18:01;140.13;;;59.77;;
13083;SDS011;6608;48.790;9.198;2023-04-01T16:20:39;137.90;;;58.50;;